Time;durP1;ratioP1;P1;durP2;ratioP2;P2;SDS_P1;SDS_P2;PMS_P1;PMS_P2;Temp;Humidity;BMP_temperature;BMP_pressure;BME280_temperature;BME280_humidity;BME280_pressure;Samples;Min_cycle;Max_cycle;Signal;HPM_P1;HPM_P2
2023/06/29 00:00:11;;;;;;;36.10;17.92;;;18.60;99.90;;;;;;4216586;28;20047;-86
2023/06/29 00:02:12;;;;;;;35.85;18.05;;;18.60;99.90;;;;;;4215750;28;20050;-85
2023/06/29 00:04:18;;;;;;;35.15;17.23;;;18.60;99.90;;;;;;4208969;28;20128;-85
2023/06/29 00:06:19;;;;;;;40.58;19.08;;;18.60;99.90;;;;;;4211752;28;20093;-85
2023/06/29 00:08:19;;;;;;;32.00;16.90;;;18.60;99.90;;;;;;4216484;28;20123;-87
2023/06/29 00:10:25;;;;;;;32.70;18.85;;;18.60;99.90;;;;;;4215380;28;20048;-86
2023/06/29 00:12:26;;;;;;;35.35;18.08;;;18.60;99.90;;;;;;4216284;28;20369;-86
2023/06/29 00:14:27;;;;;;;34.17;19.23;;;18.60;99.90;;;;;;4216383;28;20048;-86
2023/06/29 00:16:30;;;;;;;39.63;18.25;;;18.60;99.90;;;;;;4217900;28;20047;-86
2023/06/29 00:18:33;;;;;;;44.28;18.50;;;18.60;99.90;;;;;;4217518;28;20052;-85
2023/06/29 00:20:34;;;;;;;38.88;18.85;;;18.60;99.90;;;;;;4201547;28;20044;-86
2023/06/29 00:22:34;;;;;;;36.17;19.75;;;17.80;99.90;;;;;;4200955;28;20387;-86
2023/06/29 00:24:42;;;;;;;38.20;18.80;;;18.60;99.90;;;;;;4200996;28;20093;-87
2023/06/29 00:26:43;;;;;;;42.92;18.55;;;18.60;99.90;;;;;;4198882;28;20052;-86
2023/06/29 00:28:43;;;;;;;37.78;20.58;;;18.60;99.90;;;;;;4200905;28;20538;-86
2023/06/29 00:30:44;;;;;;;36.55;18.52;;;18.60;99.90;;;;;;4200837;28;20051;-86
2023/06/29 00:32:46;;;;;;;40.47;19.67;;;18.60;99.90;;;;;;4198752;28;20539;-86
2023/06/29 00:34:47;;;;;;;42.13;20.38;;;18.60;99.90;;;;;;4216583;28;20044;-88
2023/06/29 00:36:48;;;;;;;41.58;19.65;;;18.60;99.90;;;;;;4203454;28;20072;-87
2023/06/29 00:38:48;;;;;;;43.15;20.00;;;18.60;99.90;;;;;;4200687;28;20132;-87
2023/06/29 00:40:49;;;;;;;37.65;19.98;;;18.60;99.90;;;;;;4200509;28;20541;-87
2023/06/29 00:42:50;;;;;;;38.20;18.63;;;18.60;99.90;;;;;;4216245;28;20055;-87
2023/06/29 00:44:51;;;;;;;37.20;19.40;;;18.60;99.90;;;;;;4215403;28;20044;-87
2023/06/29 00:46:53;;;;;;;34.00;19.20;;;18.60;99.90;;;;;;4200483;28;20481;-87
2023/06/29 00:48:54;;;;;;;37.85;20.73;;;18.60;99.90;;;;;;4200027;28;20082;-87
2023/06/29 00:50:55;;;;;;;40.55;20.65;;;18.60;99.90;;;;;;4198158;28;20086;-87
2023/06/29 00:52:56;;;;;;;40.90;20.40;;;18.60;99.90;;;;;;4202931;28;20446;-87
2023/06/29 00:54:58;;;;;;;42.47;19.92;;;18.60;99.90;;;;;;4206471;28;20052;-87
2023/06/29 00:56:59;;;;;;;43.97;18.95;;;18.60;99.90;;;;;;4215761;28;20605;-87
2023/06/29 00:59:03;;;;;;;38.83;19.30;;;18.60;99.90;;;;;;4215643;28;20048;-86
2023/06/29 01:01:10;;;;;;;43.92;20.23;;;18.60;99.90;;;;;;4216415;28;20118;-86
2023/06/29 01:03:11;;;;;;;37.60;19.42;;;18.60;99.90;;;;;;4216074;28;20051;-86
2023/06/29 01:05:13;;;;;;;40.13;19.83;;;18.60;99.90;;;;;;4215936;28;20051;-86
2023/06/29 01:07:31;;;;;;;39.00;20.13;;;18.60;99.90;;;;;;4216343;28;20069;-86
2023/06/29 01:09:33;;;;;;;37.53;19.98;;;18.60;99.90;;;;;;4216101;28;20052;-87
2023/06/29 01:11:37;;;;;;;42.10;20.15;;;18.60;99.90;;;;;;4209254;28;20453;-86
2023/06/29 01:13:40;;;;;;;38.78;20.00;;;18.60;99.90;;;;;;4216170;28;20032;-86
2023/06/29 01:15:41;;;;;;;39.33;19.63;;;18.50;99.90;;;;;;4215145;28;20051;-87
2023/06/29 01:17:44;;;;;;;37.97;19.52;;;18.60;99.90;;;;;;4217599;28;20062;-87
2023/06/29 01:19:48;;;;;;;43.90;20.08;;;18.60;99.90;;;;;;4216319;28;20079;-86
2023/06/29 01:22:21;;;;;;;32.83;18.15;;;18.60;99.90;;;;;;4217310;28;20052;-87
2023/06/29 01:24:25;;;;;;;36.15;17.58;;;18.60;99.90;;;;;;4216826;28;20048;-86
2023/06/29 01:26:26;;;;;;;40.13;18.35;;;18.50;99.90;;;;;;4216243;28;20044;-87
2023/06/29 01:28:31;;;;;;;40.55;19.85;;;18.60;99.90;;;;;;4215337;28;20048;-86
2023/06/29 01:30:32;;;;;;;36.28;19.10;;;18.60;99.90;;;;;;4215892;28;20052;-86
2023/06/29 01:32:35;;;;;;;38.17;19.60;;;18.50;99.90;;;;;;4215631;28;20515;-87
2023/06/29 01:34:37;;;;;;;37.10;19.65;;;18.60;99.90;;;;;;4213811;28;20048;-86
2023/06/29 01:36:42;;;;;;;39.85;20.25;;;18.60;99.90;;;;;;4214262;28;20040;-86
2023/06/29 01:38:52;;;;;;;36.40;20.75;;;18.50;99.90;;;;;;4230839;28;20047;-87
2023/06/29 01:40:57;;;;;;;40.33;19.67;;;18.50;99.90;;;;;;4215638;28;20047;-86
2023/06/29 01:42:58;;;;;;;37.08;19.67;;;18.50;99.90;;;;;;4214248;28;20051;-86
2023/06/29 01:45:01;;;;;;;38.50;19.05;;;18.50;99.90;;;;;;4209646;28;20065;-87
2023/06/29 01:47:04;;;;;;;36.30;19.75;;;18.50;99.90;;;;;;4230324;28;20517;-86
2023/06/29 01:49:05;;;;;;;39.85;19.27;;;18.50;99.90;;;;;;4232566;28;20047;-86
2023/06/29 01:51:07;;;;;;;43.00;22.30;;;18.50;99.90;;;;;;4233808;28;20426;-86
2023/06/29 01:53:07;;;;;;;43.08;19.75;;;18.50;99.90;;;;;;4231294;28;20044;-87
2023/06/29 01:55:09;;;;;;;38.38;20.17;;;18.50;99.90;;;;;;4233046;28;20503;-86
2023/06/29 01:57:10;;;;;;;41.92;20.30;;;18.50;99.90;;;;;;4230865;28;20112;-87
2023/06/29 01:59:13;;;;;;;40.78;19.50;;;18.50;99.90;;;;;;4232895;28;20104;-87
2023/06/29 02:01:14;;;;;;;37.42;18.23;;;18.50;99.90;;;;;;4231569;28;20047;-86
2023/06/29 02:03:15;;;;;;;41.08;19.40;;;18.50;99.90;;;;;;4215666;28;20052;-87
2023/06/29 02:05:15;;;;;;;38.58;19.20;;;18.50;99.90;;;;;;4210737;28;20514;-87
2023/06/29 02:07:16;;;;;;;36.03;19.15;;;18.50;99.90;;;;;;4217094;28;20044;-87
2023/06/29 02:09:17;;;;;;;38.55;18.88;;;18.50;99.90;;;;;;4220370;28;20047;-87
2023/06/29 02:11:19;;;;;;;42.85;19.38;;;18.50;99.90;;;;;;4220023;28;20048;-86
2023/06/29 02:13:20;;;;;;;42.35;20.13;;;18.50;99.90;;;;;;4218721;28;20058;-86
2023/06/29 02:15:21;;;;;;;37.72;18.25;;;18.50;99.90;;;;;;4219927;28;20032;-86
2023/06/29 02:17:22;;;;;;;38.50;19.00;;;18.50;99.90;;;;;;4219735;28;20101;-86
2023/06/29 02:19:24;;;;;;;44.03;20.13;;;18.50;99.90;;;;;;4219484;28;20076;-86
2023/06/29 02:21:24;;;;;;;38.10;18.30;;;18.50;99.90;;;;;;4219905;28;20072;-87
2023/06/29 02:23:26;;;;;;;36.83;19.33;;;18.50;99.90;;;;;;4218256;28;20051;-87
2023/06/29 02:25:27;;;;;;;38.65;19.05;;;18.50;99.90;;;;;;4217571;28;20496;-86
2023/06/29 02:27:28;;;;;;;38.78;19.73;;;18.50;99.90;;;;;;4218824;28;20051;-86
2023/06/29 02:29:29;;;;;;;38.20;19.08;;;18.50;99.90;;;;;;4218377;28;20055;-86
2023/06/29 02:31:32;;;;;;;43.38;18.98;;;18.50;99.90;;;;;;4218164;28;20420;-86
2023/06/29 02:33:32;;;;;;;39.03;20.02;;;18.50;99.90;;;;;;4218326;28;20070;-86
2023/06/29 02:35:33;;;;;;;38.22;20.75;;;18.50;99.90;;;;;;4215912;28;20044;-87
2023/06/29 02:37:34;;;;;;;39.15;19.50;;;18.50;99.90;;;;;;4216686;28;20081;-86
2023/06/29 02:39:35;;;;;;;41.45;19.75;;;18.50;99.90;;;;;;4234576;28;20138;-86
2023/06/29 02:41:35;;;;;;;45.10;20.65;;;18.50;99.90;;;;;;4218301;28;20051;-86
2023/06/29 02:43:36;;;;;;;37.92;19.95;;;18.50;99.90;;;;;;4218227;28;20495;-86
2023/06/29 02:45:37;;;;;;;38.97;19.08;;;18.50;99.90;;;;;;4199607;28;20059;-86
2023/06/29 02:47:40;;;;;;;34.83;18.63;;;18.50;99.90;;;;;;4217049;28;20044;-86
2023/06/29 02:49:40;;;;;;;36.22;19.05;;;18.50;99.90;;;;;;4219066;28;20044;-86
2023/06/29 02:51:41;;;;;;;37.42;19.73;;;18.50;99.90;;;;;;4219522;28;20051;-86
2023/06/29 02:53:42;;;;;;;41.95;20.00;;;18.50;99.90;;;;;;4201794;28;20481;-86
2023/06/29 02:55:43;;;;;;;37.05;18.95;;;18.50;99.90;;;;;;4215327;28;20068;-86
2023/06/29 02:57:43;;;;;;;37.70;18.40;;;18.60;99.90;;;;;;4186558;28;20058;-85
2023/06/29 02:59:46;;;;;;;37.05;18.88;;;18.50;99.90;;;;;;4201825;28;20068;-85
2023/06/29 03:01:46;;;;;;;42.70;20.67;;;18.50;99.90;;;;;;4202630;28;20345;-85
2023/06/29 03:03:47;;;;;;;33.08;19.02;;;18.50;99.90;;;;;;4204347;28;20048;-85
2023/06/29 03:05:49;;;;;;;45.55;21.02;;;18.50;99.90;;;;;;4218636;28;20047;-86
2023/06/29 03:07:49;;;;;;;41.20;19.58;;;18.50;99.90;;;;;;4202436;28;20388;-85
2023/06/29 03:09:50;;;;;;;39.88;18.40;;;18.50;99.90;;;;;;4201932;28;20048;-85
2023/06/29 03:11:54;;;;;;;34.30;18.10;;;18.50;99.90;;;;;;4202129;28;20056;-86
2023/06/29 03:13:57;;;;;;;40.28;18.38;;;18.50;99.90;;;;;;4204299;28;20433;-86
2023/06/29 03:16:01;;;;;;;43.45;18.58;;;18.50;99.90;;;;;;4217964;28;20036;-85
2023/06/29 03:18:01;;;;;;;37.28;18.35;;;18.50;99.90;;;;;;4218936;28;20101;-86
2023/06/29 03:20:03;;;;;;;35.72;18.92;;;18.50;99.90;;;;;;4217557;28;20044;-85
2023/06/29 03:22:04;;;;;;;38.95;18.73;;;18.50;99.90;;;;;;4218601;28;20040;-86
2023/06/29 03:24:05;;;;;;;34.15;17.58;;;18.50;99.90;;;;;;4216759;28;20047;-85
2023/06/29 03:26:06;;;;;;;33.92;18.52;;;18.50;99.90;;;;;;4207522;28;20040;-86
2023/06/29 03:28:06;;;;;;;35.70;18.38;;;18.50;99.90;;;;;;4218317;28;20090;-85
2023/06/29 03:30:08;;;;;;;42.85;17.65;;;18.50;99.90;;;;;;4217483;28;20044;-85
2023/06/29 03:32:09;;;;;;;38.15;17.40;;;18.50;99.90;;;;;;4215998;28;20047;-86
2023/06/29 03:34:10;;;;;;;37.28;18.42;;;18.50;99.90;;;;;;4218053;28;20048;-86
2023/06/29 03:36:12;;;;;;;39.85;17.83;;;18.50;99.90;;;;;;4218120;28;20538;-85
2023/06/29 03:38:13;;;;;;;34.10;17.83;;;18.50;99.90;;;;;;4217799;28;20082;-86
2023/06/29 03:40:14;;;;;;;42.42;18.65;;;18.60;99.90;;;;;;4218653;28;20048;-86
2023/06/29 03:42:15;;;;;;;33.70;17.95;;;18.50;99.90;;;;;;4218492;28;20052;-86
2023/06/29 03:44:17;;;;;;;34.22;17.90;;;18.60;99.90;;;;;;4215002;28;20555;-87
2023/06/29 03:46:18;;;;;;;37.00;17.35;;;18.20;99.90;;;;;;4228431;28;20039;-86
2023/06/29 03:48:20;;;;;;;34.53;18.05;;;18.50;99.90;;;;;;4235916;28;20040;-86
2023/06/29 03:50:21;;;;;;;33.80;17.83;;;18.60;99.90;;;;;;4235335;28;20082;-87
2023/06/29 03:52:22;;;;;;;35.20;17.38;;;18.60;99.90;;;;;;4235989;28;20058;-86
2023/06/29 03:54:22;;;;;;;31.63;16.50;;;18.60;99.90;;;;;;4235377;28;20126;-86
2023/06/29 03:56:23;;;;;;;30.42;15.50;;;18.60;99.90;;;;;;4235542;28;20503;-86
2023/06/29 03:58:25;;;;;;;34.20;17.48;;;18.60;99.90;;;;;;4202864;28;20037;-87
2023/06/29 04:00:26;;;;;;;33.63;18.17;;;18.70;99.90;;;;;;4200561;28;20048;-86
2023/06/29 04:02:28;;;;;;;33.45;16.45;;;18.70;99.90;;;;;;4206383;28;20127;-86
2023/06/29 04:04:29;;;;;;;30.50;16.02;;;18.70;99.90;;;;;;4217939;28;20044;-87
2023/06/29 04:06:30;;;;;;;27.65;15.60;;;18.70;99.90;;;;;;4219333;28;20055;-86
2023/06/29 04:08:33;;;;;;;32.35;16.23;;;18.70;99.90;;;;;;4215256;28;20052;-86
2023/06/29 04:10:35;;;;;;;31.85;16.55;;;18.70;99.90;;;;;;4216957;28;20127;-86
2023/06/29 04:12:35;;;;;;;29.38;15.20;;;18.70;99.90;;;;;;4217614;28;20040;-85
2023/06/29 04:14:36;;;;;;;32.42;15.60;;;18.70;99.90;;;;;;4230801;28;20042;-86
2023/06/29 04:16:37;;;;;;;32.72;17.10;;;18.70;99.90;;;;;;4233539;28;20043;-87
2023/06/29 04:18:38;;;;;;;32.20;16.20;;;18.80;99.90;;;;;;4233822;28;20044;-84
2023/06/29 04:20:39;;;;;;;29.80;15.45;;;18.70;99.90;;;;;;4230660;28;20055;-84
2023/06/29 04:22:39;;;;;;;27.00;14.75;;;18.80;99.90;;;;;;4217203;28;20052;-84
2023/06/29 04:24:40;;;;;;;28.05;15.50;;;18.80;99.90;;;;;;4217130;28;20151;-85
2023/06/29 04:26:41;;;;;;;31.40;16.77;;;18.80;99.90;;;;;;4215091;28;20488;-85
2023/06/29 04:28:44;;;;;;;31.25;15.88;;;18.80;99.90;;;;;;4217112;28;20044;-84
2023/06/29 04:30:45;;;;;;;30.63;16.25;;;18.80;99.90;;;;;;4217877;28;20044;-82
2023/06/29 04:32:48;;;;;;;32.50;16.70;;;18.80;99.90;;;;;;4217428;28;20484;-83
2023/06/29 04:34:49;;;;;;;32.05;15.02;;;18.90;99.90;;;;;;4218873;28;20497;-84
2023/06/29 04:36:51;;;;;;;29.20;15.85;;;18.80;99.90;;;;;;4216949;28;20032;-84
2023/06/29 04:38:51;;;;;;;29.85;14.75;;;18.80;99.90;;;;;;4210674;28;20408;-84
2023/06/29 04:41:03;;;;;;;25.73;14.52;;;18.90;99.90;;;;;;4215003;28;20044;-83
2023/06/29 04:43:06;;;;;;;34.35;16.38;;;18.90;99.90;;;;;;4215849;28;20040;-85
2023/06/29 04:45:07;;;;;;;25.10;12.93;;;18.80;99.90;;;;;;4217131;28;20048;-84
2023/06/29 04:47:08;;;;;;;29.17;15.23;;;18.90;99.90;;;;;;4216861;28;20434;-84
2023/06/29 04:49:09;;;;;;;30.15;15.30;;;18.90;99.90;;;;;;4216547;28;20072;-84
2023/06/29 04:51:13;;;;;;;29.65;14.60;;;19.00;99.90;;;;;;4215676;28;20454;-84
2023/06/29 04:53:14;;;;;;;27.83;14.80;;;19.00;99.90;;;;;;4209750;28;20047;-84
2023/06/29 04:55:15;;;;;;;28.42;15.30;;;19.00;99.90;;;;;;4212954;28;20106;-85
2023/06/29 04:57:17;;;;;;;29.15;15.32;;;19.10;99.90;;;;;;4213113;28;20729;-84
2023/06/29 04:59:17;;;;;;;31.88;15.85;;;19.20;99.90;;;;;;4210897;28;20097;-85
2023/06/29 05:01:20;;;;;;;26.90;14.55;;;19.20;99.90;;;;;;4207617;28;20124;-84
2023/06/29 05:03:24;;;;;;;25.48;14.50;;;19.20;99.90;;;;;;4201630;28;20040;-84
2023/06/29 05:05:25;;;;;;;27.17;14.38;;;19.30;99.90;;;;;;4200414;28;20052;-84
2023/06/29 05:07:26;;;;;;;29.70;13.98;;;19.30;99.90;;;;;;4201753;28;20033;-83
2023/06/29 05:09:29;;;;;;;25.70;14.90;;;19.30;99.90;;;;;;4200873;28;20055;-84
2023/06/29 05:11:29;;;;;;;27.25;14.50;;;19.40;99.90;;;;;;4200237;28;20056;-83
2023/06/29 05:13:32;;;;;;;23.83;13.60;;;19.40;99.90;;;;;;4200142;28;20385;-84
2023/06/29 05:15:48;;;;;;;26.25;14.63;;;19.40;99.90;;;;;;4194604;28;20127;-83
2023/06/29 05:17:52;;;;;;;25.48;13.45;;;19.40;99.90;;;;;;4208483;28;20281;-83
2023/06/29 05:19:54;;;;;;;25.48;13.75;;;19.40;99.90;;;;;;4215329;28;20101;-83
2023/06/29 05:21:55;;;;;;;27.27;14.90;;;19.40;99.90;;;;;;4215086;28;20039;-83
2023/06/29 05:23:55;;;;;;;26.27;14.52;;;19.40;99.90;;;;;;4215570;28;20097;-84
2023/06/29 05:25:56;;;;;;;26.92;13.55;;;19.40;99.90;;;;;;4214692;28;20055;-84
2023/06/29 05:27:57;;;;;;;28.55;15.02;;;19.40;99.90;;;;;;4215084;28;20075;-84
2023/06/29 05:29:58;;;;;;;25.77;12.93;;;19.40;99.90;;;;;;4215817;28;20113;-83
2023/06/29 05:31:58;;;;;;;26.05;12.60;;;19.40;99.90;;;;;;4216700;28;20044;-84
2023/06/29 05:34:00;;;;;;;25.17;12.95;;;19.50;99.90;;;;;;4217111;28;20107;-84
2023/06/29 05:36:02;;;;;;;26.70;11.77;;;19.50;99.90;;;;;;4210570;28;20040;-85
2023/06/29 05:38:04;;;;;;;26.08;13.27;;;19.50;99.90;;;;;;4226005;28;20046;-86
2023/06/29 05:40:06;;;;;;;27.25;13.27;;;19.50;99.90;;;;;;4213973;28;20048;-85
2023/06/29 05:42:08;;;;;;;26.73;12.35;;;19.50;99.90;;;;;;4217625;28;20528;-85
2023/06/29 05:44:24;;;;;;;23.90;13.00;;;19.60;99.90;;;;;;4223051;28;20056;-85
2023/06/29 05:46:24;;;;;;;27.30;13.90;;;19.60;99.90;;;;;;4217066;28;20051;-85
2023/06/29 05:48:25;;;;;;;24.00;12.68;;;19.60;99.90;;;;;;4214667;28;20044;-85
2023/06/29 05:50:28;;;;;;;23.63;13.98;;;19.70;99.90;;;;;;4210461;28;20487;-85
2023/06/29 05:52:29;;;;;;;26.63;12.00;;;19.70;99.90;;;;;;4216205;28;20040;-85
2023/06/29 05:54:30;;;;;;;27.48;13.48;;;19.70;99.90;;;;;;4214306;28;20156;-85
2023/06/29 05:56:31;;;;;;;23.63;12.23;;;19.80;99.90;;;;;;4216629;28;20052;-85
2023/06/29 05:58:32;;;;;;;26.70;13.57;;;19.90;99.90;;;;;;4217093;28;20119;-89
2023/06/29 06:00:33;;;;;;;28.60;13.05;;;19.30;99.90;;;;;;4199161;28;20048;-92
2023/06/29 06:02:36;;;;;;;23.70;12.30;;;19.90;99.90;;;;;;4200538;28;20110;-91
2023/06/29 06:04:39;;;;;;;21.70;11.77;;;20.00;99.90;;;;;;4216950;28;20036;-91
2023/06/29 06:06:41;;;;;;;24.02;12.48;;;20.00;99.90;;;;;;4235003;28;20430;-92
2023/06/29 06:08:44;;;;;;;24.05;11.43;;;20.00;99.90;;;;;;4217765;28;20072;-90
2023/06/29 06:10:47;;;;;;;27.45;12.43;;;;;;;;;;4216558;28;20069;-91
2023/06/29 06:12:51;;;;;;;22.92;11.40;;;;;;;;;;4218273;28;20443;-89
2023/06/29 06:14:52;;;;;;;25.00;12.48;;;;;;;;;;4217188;28;20044;-91
2023/06/29 06:16:59;;;;;;;21.65;12.13;;;;;;;;;;4235034;28;20023;-92
2023/06/29 06:19:00;;;;;;;25.15;12.13;;;;;;;;;;4208569;28;20401;-90
2023/06/29 06:21:01;;;;;;;23.63;11.15;;;;;;;;;;4202415;28;20047;-89
2023/06/29 06:23:08;;;;;;;21.92;11.77;;;20.10;99.90;;;;;;4183591;28;20049;-88
2023/06/29 06:25:11;;;;;;;23.65;11.35;;;20.50;99.90;;;;;;4207899;28;20056;-91
2023/06/29 06:27:12;;;;;;;24.08;12.40;;;20.50;99.90;;;;;;4202328;28;20043;-90
2023/06/29 06:29:13;;;;;;;21.45;11.40;;;20.50;99.90;;;;;;4217165;28;20496;-90
2023/06/29 06:31:14;;;;;;;23.02;11.98;;;20.50;99.90;;;;;;4201408;28;20162;-91
2023/06/29 06:33:16;;;;;;;23.42;12.30;;;20.50;99.90;;;;;;4217126;28;20487;-91
2023/06/29 06:35:19;;;;;;;23.42;11.80;;;20.60;99.90;;;;;;4199773;28;20052;-92
2023/06/29 06:37:20;;;;;;;20.30;11.20;;;20.60;99.90;;;;;;4199576;28;20495;-91
2023/06/29 06:39:21;;;;;;;25.40;12.48;;;20.50;99.90;;;;;;4182747;28;20047;-91
2023/06/29 06:41:22;;;;;;;24.52;12.68;;;20.60;99.90;;;;;;4184069;28;20056;-91
2023/06/29 06:43:25;;;;;;;29.30;12.50;;;;;;;;;;4200448;28;20116;-91
2023/06/29 06:45:30;;;;;;;24.92;12.00;;;;;;;;;;4201746;28;20048;-91
2023/06/29 06:47:32;;;;;;;21.75;12.38;;;;;;;;;;4216206;28;20047;-91
2023/06/29 06:49:33;;;;;;;25.20;12.68;;;;;;;;;;4217884;28;20055;-91
2023/06/29 06:51:40;;;;;;;22.25;12.10;;;;;;;;;;4220977;28;20043;-92
2023/06/29 06:53:43;;;;;;;23.50;12.50;;;;;;;;;;4213287;28;20592;-92
2023/06/29 06:55:45;;;;;;;25.08;12.07;;;;;;;;;;4241828;28;20031;-91
2023/06/29 06:57:48;;;;;;;25.52;11.80;;;;;;;;;;4244512;28;20054;-91
2023/06/29 06:59:58;;;;;;;25.80;13.80;;;;;;;;;;4214031;28;20048;-90
2023/06/29 07:01:59;;;;;;;24.27;12.75;;;;;;;;;;4214109;28;20050;-90
2023/06/29 07:04:03;;;;;;;25.02;11.95;;;;;;;;;;4219166;28;20047;-90
2023/06/29 07:06:05;;;;;;;25.63;13.07;;;;;;;;;;4236841;28;20048;-90
2023/06/29 07:08:06;;;;;;;23.95;13.18;;;;;;;;;;4220016;28;20040;-91
2023/06/29 07:10:08;;;;;;;24.08;12.05;;;;;;;;;;4219713;28;20115;-91
2023/06/29 07:12:09;;;;;;;21.10;11.15;;;;;;;;;;4235973;28;20032;-90
2023/06/29 07:14:10;;;;;;;27.15;12.20;;;;;;;;;;4209751;28;20074;-87
2023/06/29 07:16:13;;;;;;;22.73;11.05;;;;;;;;;;4220242;28;20040;-86
2023/06/29 07:18:20;;;;;;;21.73;11.13;;;;;;;;;;4218528;28;20043;-86
2023/06/29 07:20:22;;;;;;;21.55;11.88;;;;;;;;;;4218826;28;20484;-87
2023/06/29 07:22:23;;;;;;;26.60;11.88;;;;;;;;;;4218209;28;20090;-86
2023/06/29 07:24:24;;;;;;;25.20;12.43;;;;;;;;;;4218053;28;20047;-85
2023/06/29 07:26:26;;;;;;;23.52;11.48;;;;;;;;;;4201791;28;20056;-85
2023/06/29 07:28:27;;;;;;;22.00;11.57;;;;;;;;;;4203701;28;20055;-85
2023/06/29 07:30:28;;;;;;;26.52;12.32;;;;;;;;;;4218969;28;20054;-84
2023/06/29 07:32:29;;;;;;;21.52;12.18;;;;;;;;;;4220078;28;20067;-84
2023/06/29 07:34:30;;;;;;;26.45;12.30;;;20.60;99.90;;;;;;4229185;28;20085;-84
2023/06/29 07:36:31;;;;;;;27.70;13.10;;;21.10;99.90;;;;;;4222515;28;20518;-84
2023/06/29 07:38:32;;;;;;;24.27;11.90;;;21.00;99.90;;;;;;4228072;28;20048;-86
2023/06/29 07:40:32;;;;;;;24.95;12.27;;;21.00;99.90;;;;;;4217543;28;20079;-86
2023/06/29 07:42:34;;;;;;;24.25;12.35;;;21.30;99.90;;;;;;4203129;28;20123;-85
2023/06/29 07:44:35;;;;;;;30.58;13.15;;;20.90;99.90;;;;;;4202416;28;20480;-84
2023/06/29 07:46:36;;;;;;;24.85;12.50;;;20.90;99.90;;;;;;4202674;28;20100;-86
2023/06/29 07:48:38;;;;;;;28.48;12.32;;;20.90;99.90;;;;;;4201651;28;20036;-86
2023/06/29 07:50:40;;;;;;;24.92;12.23;;;20.90;99.90;;;;;;4202101;28;20052;-86
2023/06/29 07:52:42;;;;;;;23.65;12.52;;;20.90;99.90;;;;;;4203786;28;20480;-86
2023/06/29 07:54:43;;;;;;;30.05;13.35;;;20.80;99.90;;;;;;4234223;28;20185;-86
2023/06/29 07:56:43;;;;;;;25.23;12.82;;;20.80;99.90;;;;;;4232441;28;20476;-86
2023/06/29 07:58:44;;;;;;;28.42;13.05;;;20.90;99.90;;;;;;4214221;28;20051;-86
2023/06/29 08:00:45;;;;;;;25.75;13.15;;;20.90;99.90;;;;;;4218243;28;20093;-85
2023/06/29 08:02:46;;;;;;;26.40;11.60;;;20.80;99.90;;;;;;4218088;28;20127;-85
2023/06/29 08:04:47;;;;;;;25.30;12.68;;;20.80;99.90;;;;;;4218368;28;20052;-85
2023/06/29 08:06:48;;;;;;;20.90;11.60;;;20.80;99.90;;;;;;4218774;28;20038;-86
2023/06/29 08:08:48;;;;;;;25.45;12.35;;;20.70;99.90;;;;;;4217590;28;20047;-86
2023/06/29 08:10:49;;;;;;;25.58;12.60;;;20.30;99.90;;;;;;4220319;28;20044;-85
2023/06/29 08:12:50;;;;;;;26.02;12.88;;;20.80;99.90;;;;;;4217615;28;20086;-86
2023/06/29 08:14:51;;;;;;;25.02;13.05;;;20.70;99.90;;;;;;4218599;28;20047;-85
2023/06/29 08:16:51;;;;;;;29.27;12.27;;;20.70;99.90;;;;;;4217672;28;20438;-85
2023/06/29 08:18:52;;;;;;;23.60;13.55;;;20.80;99.90;;;;;;4216518;28;20040;-86
2023/06/29 08:20:53;;;;;;;27.88;14.48;;;20.70;99.90;;;;;;4217644;28;20377;-86
2023/06/29 08:22:54;;;;;;;25.85;13.40;;;20.80;99.90;;;;;;4217081;28;20044;-85
2023/06/29 08:24:55;;;;;;;28.00;14.18;;;20.90;99.90;;;;;;4219237;28;20070;-85
2023/06/29 08:26:56;;;;;;;26.73;13.10;;;20.90;99.90;;;;;;4206891;28;20481;-85
2023/06/29 08:28:57;;;;;;;30.35;13.73;;;21.00;99.90;;;;;;4215348;28;20067;-86
2023/06/29 08:30:58;;;;;;;24.27;12.65;;;21.10;99.90;;;;;;4218009;28;20055;-85
2023/06/29 08:32:59;;;;;;;28.35;13.13;;;21.00;99.90;;;;;;4205175;28;20225;-86
2023/06/29 08:35:00;;;;;;;27.42;11.85;;;21.20;99.90;;;;;;4201137;28;20135;-85
2023/06/29 08:37:00;;;;;;;24.75;12.20;;;21.30;99.90;;;;;;4200895;28;20044;-86
2023/06/29 08:39:01;;;;;;;33.42;14.02;;;21.40;99.90;;;;;;4201949;28;20037;-86
2023/06/29 08:41:04;;;;;;;22.48;12.23;;;21.40;99.90;;;;;;4201116;28;20138;-86
2023/06/29 08:43:05;;;;;;;26.33;13.98;;;21.50;99.90;;;;;;4205018;28;20044;-86
2023/06/29 08:45:06;;;;;;;25.50;12.63;;;21.60;99.90;;;;;;4203353;28;20484;-86
2023/06/29 08:47:09;;;;;;;28.08;13.40;;;21.60;99.90;;;;;;4201463;28;20052;-85
2023/06/29 08:49:11;;;;;;;25.20;13.52;;;21.60;99.90;;;;;;4201876;28;20058;-85
2023/06/29 08:51:16;;;;;;;25.00;13.00;;;21.70;99.90;;;;;;4205528;28;20055;-86
2023/06/29 08:53:17;;;;;;;29.52;13.82;;;21.80;99.90;;;;;;4218740;28;20044;-84
2023/06/29 08:55:18;;;;;;;24.55;12.93;;;21.80;99.90;;;;;;4217413;28;20091;-87
2023/06/29 08:57:20;;;;;;;24.75;12.15;;;21.90;99.90;;;;;;4219020;28;20044;-85
2023/06/29 08:59:23;;;;;;;29.30;13.75;;;21.90;99.90;;;;;;4216797;28;20052;-85
2023/06/29 09:01:24;;;;;;;25.48;13.18;;;21.90;99.90;;;;;;4217649;28;20102;-85
2023/06/29 09:03:26;;;;;;;27.65;13.68;;;21.90;99.90;;;;;;4216290;28;20036;-86
2023/06/29 09:05:27;;;;;;;31.17;12.90;;;21.90;99.90;;;;;;4215654;28;20461;-86
2023/06/29 09:07:28;;;;;;;26.98;13.00;;;21.90;99.90;;;;;;4215971;28;20040;-86
2023/06/29 09:09:30;;;;;;;30.23;14.25;;;21.90;99.90;;;;;;4205013;28;20127;-86
2023/06/29 09:11:34;;;;;;;30.08;13.52;;;22.00;99.90;;;;;;4218010;28;20377;-86
2023/06/29 09:13:35;;;;;;;24.67;12.48;;;22.00;99.90;;;;;;4216442;28;20047;-85
2023/06/29 09:15:39;;;;;;;26.42;14.30;;;22.00;99.90;;;;;;4217341;28;20048;-87
2023/06/29 09:17:47;;;;;;;26.27;12.50;;;22.00;99.90;;;;;;4233338;28;20044;-85
2023/06/29 09:19:54;;;;;;;30.40;13.67;;;22.00;99.90;;;;;;4216532;28;20051;-85
2023/06/29 09:21:56;;;;;;;24.58;13.00;;;22.00;99.90;;;;;;4217853;28;20381;-84
2023/06/29 09:23:57;;;;;;;27.77;13.68;;;22.00;99.90;;;;;;4216907;28;20047;-83
2023/06/29 09:25:58;;;;;;;26.83;12.95;;;22.00;99.90;;;;;;4210610;28;20044;-84
2023/06/29 09:28:06;;;;;;;24.08;13.18;;;21.90;99.90;;;;;;4199665;28;20044;-84
2023/06/29 09:30:15;;;;;;;31.23;14.52;;;21.90;99.90;;;;;;4199397;28;20108;-84
2023/06/29 09:32:16;;;;;;;28.25;13.85;;;22.00;99.90;;;;;;4217288;28;20533;-84
2023/06/29 09:34:27;;;;;;;25.10;12.75;;;21.90;99.90;;;;;;4225430;28;20048;-85
2023/06/29 09:36:28;;;;;;;26.42;12.68;;;22.00;99.90;;;;;;4232959;28;20047;-84
2023/06/29 09:38:31;;;;;;;25.35;13.85;;;22.10;99.90;;;;;;4233445;28;20130;-84
2023/06/29 09:40:45;;;;;;;24.45;12.65;;;22.20;99.90;;;;;;4207517;28;20048;-83
2023/06/29 09:42:46;;;;;;;24.15;12.90;;;22.30;99.90;;;;;;4221680;28;20048;-83
2023/06/29 09:44:49;;;;;;;25.73;13.35;;;22.30;99.90;;;;;;4212228;28;20432;-84
2023/06/29 09:46:52;;;;;;;32.08;15.07;;;22.30;99.90;;;;;;4217491;28;20044;-83
2023/06/29 09:48:54;;;;;;;25.63;14.00;;;22.20;99.90;;;;;;4217514;28;20044;-84
2023/06/29 09:50:59;;;;;;;29.60;14.27;;;22.20;99.90;;;;;;4217069;28;20426;-83
2023/06/29 09:53:07;;;;;;;24.35;13.70;;;22.10;99.90;;;;;;4215267;28;20063;-84
2023/06/29 09:55:08;;;;;;;26.95;14.20;;;21.80;99.90;;;;;;4215909;28;20056;-84
2023/06/29 09:57:13;;;;;;;27.08;14.82;;;22.00;99.90;;;;;;4205404;28;20048;-84
2023/06/29 09:59:14;;;;;;;24.83;13.95;;;21.90;99.90;;;;;;4216225;28;20040;-85
2023/06/29 10:01:28;;;;;;;27.08;14.07;;;21.90;99.90;;;;;;4214286;28;20055;-85
2023/06/29 10:03:33;;;;;;;28.10;14.60;;;21.90;99.90;;;;;;4200530;28;20408;-84
2023/06/29 10:05:36;;;;;;;26.40;14.27;;;21.80;99.90;;;;;;4198836;28;20024;-84
2023/06/29 10:07:39;;;;;;;25.15;14.48;;;21.90;99.90;;;;;;4200301;28;20382;-84
2023/06/29 10:09:50;;;;;;;30.50;15.35;;;21.90;99.90;;;;;;4199732;28;20048;-84
2023/06/29 10:11:53;;;;;;;28.25;14.18;;;21.90;99.90;;;;;;4199886;28;20048;-84
2023/06/29 10:14:02;;;;;;;32.10;14.38;;;21.90;99.90;;;;;;4205008;28;20484;-84
2023/06/29 10:16:09;;;;;;;28.92;14.38;;;21.90;99.90;;;;;;4216662;28;20403;-83
2023/06/29 10:18:15;;;;;;;25.20;13.75;;;22.00;99.90;;;;;;4209588;28;20055;-83
2023/06/29 10:20:19;;;;;;;25.45;14.00;;;22.00;99.90;;;;;;4215434;28;20044;-83
2023/06/29 10:22:21;;;;;;;21.25;12.38;;;22.00;99.90;;;;;;4216185;28;20079;-84
2023/06/29 10:24:27;;;;;;;29.42;13.43;;;22.00;99.90;;;;;;4207152;28;20045;-83
2023/06/29 10:26:28;;;;;;;23.55;13.38;;;21.90;99.90;;;;;;4202846;28;20045;-83